Latest Weather Observations for Moruya Airport

IDN60901

Issued at 12:52 pm EDT Saturday 16 October 2021 (issued every 10 minutes, with the page automatically refreshed every 10 minutes)

About weather observations | Map of Canberra area stations | Latest observations for Canberra area | Other Formats
Station Details ID: 069148 Name: MORUYA AIRPORT AWS Lat: -35.90 Lon: 150.14 Height: 4.0 m
Data from the previous 72 hours. | See also: Recent months at Moruya Airport
Date/Time
EDT
Temp
°C
App
Temp
°C
Dew
Point
°C
Rel
Hum
%
Delta-T
°C
Wind Press
QNH
hPa
Press
MSL
hPa
Rain since
9am
mm
Dir  Spd
km/h
Gust
km/h
Spd
kts
Gust
kts
16/12:30pm 20.6 17.1 5.4 37 7.5 SSW 13 20 7 11 999.7 999.6 0.0
16/12:00pm 20.0 17.6 7.1 43 6.6 WSW 9 19 5 10 999.8 999.7 0.0
16/11:30am 18.8 15.5 6.6 45 6.1 NNW 13 19 7 10 1000.1 1000.0 0.0
16/11:00am 19.3 16.4 6.4 43 6.5 WSW 11 17 6 9 999.8 999.7 0.0
16/10:30am 18.8 16.2 6.3 44 6.2 WNW 9 15 5 8 999.8 999.7 0.0
16/10:00am 18.2 14.8 6.1 45 6.0 WNW 13 24 7 13 999.4 999.3 0.0
16/09:30am 17.6 13.9 6.5 48 5.5 NW 15 24 8 13 999.5 999.4 0.0
16/09:00am 16.0 11.8 5.9 51 4.9 NW 17 28 9 15 999.2 999.1 4.0
16/08:30am 16.0 12.2 5.9 51 4.9 NW 15 28 8 15 999.1 999.0 4.0
16/08:00am 15.3 11.7 6.8 57 4.2 NNW 15 20 8 11 998.8 998.7 4.0
16/07:30am 14.1 11.1 6.2 59 3.8 NNW 11 19 6 10 998.4 998.3 4.0
16/07:00am 12.7 10.5 6.1 64 3.1 WNW 7 13 4 7 998.2 998.1 4.0
16/06:30am 10.6 8.4 6.0 73 2.1 NW 7 15 4 8 997.8 997.7 4.0
16/06:00am 10.2 8.1 6.5 78 1.7 NW 7 11 4 6 997.3 997.2 4.0
16/05:30am 9.1 7.4 7.7 91 0.7 N 6 9 3 5 997.1 997.0 4.0
16/05:00am 9.5 7.3 7.9 90 0.8 NNE 9 13 5 7 996.9 996.8 3.8
16/04:30am 9.9 8.3 8.7 92 0.6 NNW 7 9 4 5 996.8 996.7 3.8
16/04:00am 10.4 10.0 8.3 87 1.0 CALM 0 7 0 4 997.0 996.9 3.8
16/03:30am 9.4 8.3 8.5 94 0.4 NNW 4 7 2 4 997.0 996.9 3.8
16/03:00am 9.1 7.4 8.2 94 0.4 NNW 7 9 4 5 997.4 997.3 3.8
16/02:30am 8.4 6.6 7.8 96 0.3 NW 7 11 4 6 997.7 997.6 3.8
16/02:08am 7.8 6.0 7.2 96 0.3 WNW 6 7 3 4 998.0 997.9 3.8
16/02:00am 7.7 6.3 7.1 96 0.3 WNW 4 9 2 5 998.2 998.1 3.8
16/01:30am 8.0 6.3 7.4 96 0.3 NNW 6 7 3 4 998.4 998.3 3.8
16/01:15am 7.8 6.0 7.2 96 0.3 NNW 6 7 3 4 998.7 998.6 3.8
16/01:13am 7.9 6.1 7.3 96 0.3 NNW 6 7 3 4 998.8 998.7 3.8
16/01:00am 8.1 6.8 7.5 96 0.3 NNW 4 7 2 4 999.0 998.9 3.8
16/12:54am 8.1 6.8 7.5 96 0.3 NNW 4 7 2 4 999.1 999.0 3.8
16/12:37am 8.4 6.8 7.8 96 0.3 NNW 6 7 3 4 999.3 999.2 3.8
16/12:30am 8.5 6.7 7.9 96 0.3 NNW 7 9 4 5 999.4 999.3 3.8
16/12:00am 8.5 6.8 7.7 95 0.4 NW 6 7 3 4 999.6 999.5 3.8
 
Date/Time
EDT
Temp
°C
App
Temp
°C
Dew
Point
°C
Rel
Hum
%
Delta-T
°C
Wind Press
QNH
hPa
Press
MSL
hPa
Rain since
9am
mm
Dir  Spd
km/h
Gust
km/h
Spd
kts
Gust
kts
15/11:30pm 9.1 7.6 8.3 95 0.4 NW 6 7 3 4 1000.2 1000.1 3.8
15/11:11pm 9.3 8.6 8.4 94 0.4 NW 2 7 1 4 1000.3 1000.2 3.8
15/11:00pm 9.7 9.4 8.8 94 0.4 CALM 0 2 0 1 1000.5 1000.4 3.8
15/10:30pm 10.2 8.7 9.3 94 0.4 WNW 7 11 4 6 1000.5 1000.4 3.8
15/10:00pm 10.9 9.6 9.8 93 0.6 NNW 7 9 4 5 1000.6 1000.5 3.8
15/09:30pm 11.5 9.9 10.2 92 0.7 NW 9 13 5 7 1001.0 1000.9 3.8
15/09:00pm 11.8 10.3 10.5 92 0.7 NW 9 13 5 7 1001.1 1001.0 3.8
15/08:30pm 11.7 10.2 10.4 92 0.7 W 9 15 5 8 1000.9 1000.8 3.8
15/08:00pm 12.0 10.5 10.6 91 0.7 WSW 9 20 5 11 1000.8 1000.7 3.8
15/07:30pm 12.4 11.0 11.0 91 0.7 SSW 9 13 5 7 1000.5 1000.4 3.8
15/07:00pm 12.9 10.4 11.1 89 1.0 SSW 15 20 8 11 1000.5 1000.4 3.4
15/06:59pm 12.9 10.4 11.1 89 0.9 SSW 15 20 8 11 1000.5 1000.4 3.4
15/06:45pm 13.4 11.3 11.1 86 1.2 SSW 13 20 7 11 1000.1 1000.0 3.0
15/06:30pm 13.8 10.4 10.6 81 1.7 S 19 28 10 15 999.6 999.5 2.4
15/06:00pm 14.8 13.7 10.0 73 2.5 NE 6 9 3 5 999.2 999.1 2.2
15/05:30pm 15.4 13.6 9.5 68 3.0 ENE 9 13 5 7 998.9 998.8 2.2
15/05:00pm 14.8 13.0 10.8 77 2.1 NNE 11 15 6 8 998.5 998.4 2.2
15/04:30pm 15.1 12.9 10.7 75 2.3 NNE 13 17 7 9 998.5 998.4 2.0
15/04:12pm 14.6 13.3 10.0 74 2.4 ESE 7 11 4 6 998.1 998.0 2.0
15/04:00pm 14.5 13.3 11.5 82 1.6 SSE 9 13 5 7 997.7 997.6 2.0
15/03:53pm 14.4 12.2 10.8 79 1.9 S 13 15 7 8 997.7 997.6 1.8
15/03:30pm 15.3 13.0 9.0 66 3.2 ENE 11 13 6 7 997.6 997.5 1.0
15/03:00pm 16.5 14.3 9.2 62 3.8 SSW 11 22 6 12 997.8 997.7 1.0
15/02:59pm 16.2 13.7 8.4 60 4.0 SSW 11 22 6 12 997.9 997.8 1.0
15/02:30pm 16.3 13.4 9.7 65 3.4 E 15 20 8 11 998.5 998.4 1.0
15/02:23pm 16.6 13.2 9.3 62 3.8 ESE 17 22 9 12 998.1 998.0 1.0
15/02:00pm 17.5 14.4 10.4 63 3.8 E 17 20 9 11 997.8 997.7 1.0
15/01:30pm 17.9 15.2 9.0 56 4.6 ESE 13 15 7 8 997.5 997.4 1.0
15/01:00pm 18.2 15.7 8.2 52 5.2 SSW 11 15 6 8 997.9 997.8 0.8
15/12:30pm 16.4 14.9 10.7 69 3.0 E 9 13 5 7 998.8 998.7 0.8
15/12:00pm 14.7 13.9 11.1 79 1.9 NE 6 11 3 6 1000.0 999.9 0.8
15/11:30am 12.7 12.9 10.4 86 1.2 CALM 0 0 0 0 1000.4 1000.3 0.8
15/11:00am 12.2 10.8 9.6 84 1.3 N 7 11 4 6 1001.5 1001.4 0.6
15/10:30am 12.7 10.9 9.5 81 1.6 W 9 13 5 7 1001.2 1001.1 0.4
15/10:00am 12.3 11.1 10.2 87 1.1 NNW 7 11 4 6 1001.7 1001.6 0.2
15/09:30am 12.2 10.4 9.4 83 1.4 W 9 15 5 8 1002.5 1002.4 0.2
15/09:00am 12.7 10.3 8.8 77 2.0 NW 11 17 6 9 1002.3 1002.2 8.0
15/08:30am 13.1 11.4 9.9 81 1.6 NNW 9 15 5 8 1003.0 1002.9 7.8
15/08:00am 12.8 12.0 10.9 88 1.0 W 6 7 3 4 1001.9 1001.8 7.8
15/07:30am 12.9 11.5 11.0 88 1.0 N 9 13 5 7 1002.1 1002.0 7.8
15/07:00am 11.7 11.6 10.9 95 0.4 NNW 2 11 1 6 1002.3 1002.2 7.8
15/06:30am 11.4 9.9 10.5 94 0.5 NW 9 15 5 8 1002.3 1002.2 7.8
15/06:00am 11.7 10.8 10.6 93 0.6 SSW 6 13 3 7 1002.1 1002.0 7.6
15/05:30am 11.9 10.3 10.3 90 0.8 W 9 19 5 10 1003.3 1003.2 7.6
15/05:00am 11.7 9.1 10.8 94 0.5 WSW 15 20 8 11 1002.4 1002.3 7.6
15/04:30am 11.4 8.8 10.8 96 0.3 SW 15 20 8 11 1002.2 1002.1 7.6
15/04:00am 11.6 10.3 11.1 97 0.3 W 9 13 5 7 1002.0 1001.9 7.6
15/03:42am 11.9 10.3 11.4 97 0.3 WSW 11 20 6 11 1001.8 1001.7 7.6
15/03:36am 11.5 9.7 11.0 97 0.3 WSW 11 15 6 8 1002.0 1001.9 7.6
15/03:30am 11.5 9.7 11.0 97 0.3 WSW 11 15 6 8 1001.9 1001.8 7.6
15/03:24am 11.3 9.9 10.8 97 0.3 WSW 9 13 5 7 1001.9 1001.8 7.6
15/03:00am 11.5 11.8 11.0 97 0.3 CALM 0 0 0 0 1002.2 1002.1 7.6
15/02:54am 11.6 12.0 11.1 97 0.3 CALM 0 0 0 0 1002.2 1002.1 7.6
15/02:30am 12.0 11.3 11.5 97 0.3 W 6 9 3 5 1002.3 1002.2 7.6
15/02:29am 12.0 11.3 11.5 97 0.3 W 6 9 3 5 1002.3 1002.2 7.6
15/02:00am 12.1 10.9 11.6 97 0.3 SW 9 11 5 6 1002.1 1002.0 7.6
15/01:30am 12.2 12.4 11.7 97 0.3 S 2 9 1 5 1001.9 1001.8 7.6
15/01:00am 12.6 12.1 12.0 96 0.3 S 6 7 3 4 1001.9 1001.8 7.6
15/12:52am 13.3 12.8 12.8 97 0.3 S 7 9 4 5 1001.8 1001.7 7.6
15/12:49am 13.4 13.2 12.9 97 0.3 S 6 9 3 5 1001.8 1001.7 7.6
15/12:30am 13.5 13.1 12.9 96 0.3 WNW 7 19 4 10 1001.9 1001.8 7.6
15/12:00am 12.6 13.2 12.0 96 0.3 CALM 0 0 0 0 1002.0 1001.9 7.6
 
Date/Time
EDT
Temp
°C
App
Temp
°C
Dew
Point
°C
Rel
Hum
%
Delta-T
°C
Wind Press
QNH
hPa
Press
MSL
hPa
Rain since
9am
mm
Dir  Spd
km/h
Gust
km/h
Spd
kts
Gust
kts
14/11:30pm 12.4 11.8 11.6 95 0.4 W 6 7 3 4 1001.9 1001.8 7.6
14/11:00pm 13.7 14.2 12.9 95 0.4 W 2 6 1 3 1001.7 1001.6 7.6
14/10:30pm 14.0 15.0 13.2 95 0.4 CALM 0 0 0 0 1002.2 1002.1 7.6
14/10:00pm 14.7 15.6 13.9 95 0.5 W 2 6 1 3 1002.7 1002.6 7.6
14/09:30pm 15.1 15.6 14.1 94 0.6 W 4 7 2 4 1002.8 1002.7 7.6
14/09:11pm 15.4 15.6 14.3 93 0.6 W 6 7 3 4 1002.2 1002.1 7.6
14/09:00pm 16.0 16.8 14.9 93 0.6 W 4 7 2 4 1002.4 1002.3 7.6
14/08:56pm 16.1 16.6 15.0 93 0.6 W 6 7 3 4 1002.6 1002.5 7.6
14/08:39pm 16.6 17.2 15.3 92 0.8 NNE 6 9 3 5 1002.8 1002.7 7.4
14/08:37pm 16.6 17.2 15.3 92 0.8 NNE 6 9 3 5 1002.6 1002.5 7.4
14/08:30pm 16.7 17.3 15.4 92 0.8 S 6 9 3 5 1002.8 1002.7 7.2
14/08:26pm 16.7 17.3 15.4 92 0.8 WSW 6 11 3 6 1002.7 1002.6 7.2
14/08:04pm 16.7 15.9 15.2 91 0.9 W 13 17 7 9 1002.7 1002.6 6.0
14/08:00pm 16.7 16.7 15.2 91 0.9 W 9 17 5 9 1002.6 1002.5 6.0
14/07:30pm 16.8 17.5 15.7 93 0.6 W 6 9 3 5 1002.2 1002.1 6.0
14/07:00pm 17.0 17.8 15.9 93 0.7 W 6 7 3 4 1002.4 1002.3 6.0
14/06:30pm 17.2 18.5 16.1 93 0.7 N 4 7 2 4 1002.5 1002.4 6.0
14/06:25pm 17.2 18.5 16.1 93 0.7 NNW 4 9 2 5 1002.4 1002.3 6.0
14/06:00pm 17.4 18.3 16.1 92 0.8 N 6 9 3 5 1002.5 1002.4 6.0
14/05:48pm 17.2 18.4 15.9 92 0.8 W 4 9 2 5 1002.6 1002.5 6.0
14/05:32pm 17.3 19.3 16.0 92 0.8 CALM 0 6 0 3 1002.5 1002.4 6.0
14/05:30pm 17.2 19.2 15.9 92 0.8 CALM 0 6 0 3 1002.2 1002.1 6.0
14/05:14pm 17.1 17.3 15.8 92 0.8 NNE 9 11 5 6 1002.6 1002.5 5.6
14/05:08pm 16.8 16.8 15.3 91 0.9 NNE 9 11 5 6 1002.8 1002.7 5.6
14/05:00pm 16.8 16.4 15.3 91 0.9 NE 11 19 6 10 1003.0 1002.9 5.6
14/04:30pm 17.1 16.5 15.6 91 0.9 ENE 13 19 7 10 1003.5 1003.4 4.0
14/04:15pm 17.2 16.0 15.0 87 1.3 ENE 15 19 8 10 1003.8 1003.7 0.6
14/04:00pm 17.4 15.6 15.4 88 1.2 NE 19 30 10 16 1003.6 1003.5 0.2
14/03:57pm 17.6 15.9 15.8 89 1.1 NE 19 24 10 13 1003.8 1003.7 0.2
14/03:43pm 17.7 16.9 16.0 90 1.0 NNE 15 22 8 12 1003.9 1003.8 0.2
14/03:38pm 17.6 16.7 15.8 89 1.1 NNE 15 22 8 12 1004.1 1004.0 0.2
14/03:32pm 17.6 16.6 15.6 88 1.2 NNE 15 20 8 11 1004.0 1003.9 0.2
14/03:30pm 17.7 16.3 15.5 87 1.3 NNE 17 20 9 11 1003.9 1003.8 0.2
14/03:24pm 17.7 16.2 15.3 86 1.4 NNE 17 22 9 12 1004.0 1003.9 0.0
14/03:22pm 17.7 16.2 15.3 86 1.4 NE 17 22 9 12 1003.9 1003.8 0.0
14/03:00pm 18.3 17.8 14.8 80 2.0 NE 11 15 6 8 1003.9 1003.8 0.0
14/02:30pm 18.7 18.1 14.6 77 2.4 NE 11 15 6 8 1004.2 1004.1 0.0
14/02:00pm 18.4 17.4 14.7 79 2.2 NE 13 20 7 11 1004.7 1004.6 0.0
14/01:30pm 18.6 17.0 13.9 74 2.7 NE 15 19 8 10 1005.2 1005.1 0.0
14/01:00pm 19.7 18.1 14.9 74 2.8 NE 17 20 9 11 1005.2 1005.1 0.0
14/12:30pm 18.7 16.5 14.8 78 2.3 ENE 20 26 11 14 1005.5 1005.4 0.0
14/12:00pm 19.6 17.7 14.2 71 3.1 NE 17 28 9 15 1006.2 1006.1 0.0
14/11:30am 20.7 19.4 12.4 59 4.7 N 11 17 6 9 1006.6 1006.5 0.0
14/11:00am 19.5 18.9 13.4 68 3.5 NW 9 15 5 8 1006.8 1006.7 0.0
14/10:30am 19.0 18.6 14.1 73 2.8 N 9 13 5 7 1007.0 1006.9 0.0
14/10:00am 16.5 15.6 12.5 77 2.2 NE 9 13 5 7 1006.8 1006.7 0.0
14/09:30am 15.3 13.5 13.2 87 1.2 NNW 15 26 8 14 1008.1 1008.0 0.0
14/09:00am 14.6 13.8 13.0 90 0.9 NW 9 13 5 7 1008.2 1008.1 12.8
14/08:30am 14.4 13.1 12.4 88 1.1 N 11 15 6 8 1009.1 1009.0 11.6
14/08:00am 13.8 12.3 11.8 88 1.1 WNW 11 17 6 9 1009.0 1008.9 11.2
14/07:30am 14.2 13.6 13.4 95 0.4 NW 9 15 5 8 1008.4 1008.3 10.8
14/07:00am 14.1 14.0 13.3 95 0.4 NW 6 6 3 3 1008.4 1008.3 10.8
14/06:30am 13.8 12.7 13.0 95 0.4 W 11 15 6 8 1008.7 1008.6 10.8
14/06:00am 13.6 14.2 13.0 96 0.3 WNW 2 6 1 3 1008.3 1008.2 10.6
14/05:30am 13.9 14.2 13.3 96 0.3 WNW 4 7 2 4 1007.8 1007.7 10.6
14/05:00am 13.7 13.5 12.9 95 0.4 NW 6 7 3 4 1007.7 1007.6 10.6
14/04:30am 13.8 13.4 13.0 95 0.4 WNW 7 11 4 6 1007.6 1007.5 10.6
14/04:00am 14.3 13.7 13.5 95 0.4 NNW 9 13 5 7 1007.6 1007.5 10.6
14/03:30am 13.9 14.9 13.1 95 0.4 CALM 0 0 0 0 1007.7 1007.6 10.4
14/03:00am 14.0 14.6 13.2 95 0.4 NNW 2 7 1 4 1008.4 1008.3 10.0
14/02:30am 14.0 15.0 13.2 95 0.4 CALM 0 6 0 3 1008.8 1008.7 10.0
14/02:00am 14.1 14.8 13.3 95 0.4 NNW 2 6 1 3 1009.4 1009.3 10.0
14/01:30am 14.0 15.0 13.2 95 0.4 CALM 0 0 0 0 1009.8 1009.7 10.0
14/01:27am 14.0 15.0 13.2 95 0.4 CALM 0 0 0 0 1009.8 1009.7 10.0
14/01:06am 14.3 15.4 13.5 95 0.4 CALM 0 0 0 0 1010.2 1010.1 10.0
14/01:00am 14.5 15.7 13.7 95 0.4 CALM 0 0 0 0 1010.3 1010.2 10.0
14/12:30am 14.8 14.9 14.0 95 0.4 NNW 6 7 3 4 1010.6 1010.5 10.0
14/12:00am 14.9 15.1 14.1 95 0.5 N 6 7 3 4 1011.0 1010.9 10.0
 
Date/Time
EDT
Temp
°C
App
Temp
°C
Dew
Point
°C
Rel
Hum
%
Delta-T
°C
Wind Press
QNH
hPa
Press
MSL
hPa
Rain since
9am
mm
Dir  Spd
km/h
Gust
km/h
Spd
kts
Gust
kts
13/11:30pm 15.4 15.6 14.6 95 0.5 NNW 7 9 4 5 1011.5 1011.4 10.0
13/11:00pm 15.7 15.9 14.7 94 0.6 N 7 11 4 6 1011.8 1011.7 10.0
13/10:45pm 15.8 15.2 14.7 93 0.6 N 11 17 6 9 1012.2 1012.1 10.0
13/10:30pm 15.9 14.6 14.8 93 0.6 N 15 20 8 11 1012.2 1012.1 10.0
13/10:14pm 16.1 13.2 15.0 93 0.6 NNE 24 37 13 20 1012.2 1012.1 10.0
13/10:00pm 16.2 12.2 15.1 93 0.6 NNE 30 41 16 22 1012.2 1012.1 10.0
13/09:49pm 16.3 11.8 15.0 92 0.8 NE 32 52 17 28 1012.1 1012.0 9.4
13/09:47pm 16.3 11.7 15.0 92 0.8 NE 33 52 18 28 1012.1 1012.0 9.4
13/09:30pm 16.1 11.1 15.1 94 0.6 NE 35 46 19 25 1012.3 1012.2 9.0
13/09:12pm 15.6 11.1 14.8 95 0.5 NE 32 44 17 24 1012.6 1012.5 9.0
13/09:00pm 15.6 11.1 14.8 95 0.5 NE 32 43 17 23 1012.6 1012.5 9.0
13/08:30pm 15.3 11.4 14.5 95 0.5 NE 28 41 15 22 1013.0 1012.9 6.2
13/08:00pm 15.1 11.8 14.1 94 0.6 NE 24 32 13 17 1013.0 1012.9 4.6
13/07:30pm 15.0 11.7 13.9 93 0.6 NE 24 35 13 19 1012.8 1012.7 3.8
13/07:00pm 14.7 11.3 13.7 94 0.6 NNE 24 32 13 17 1013.1 1013.0 3.0
13/06:30pm 14.7 12.3 13.7 94 0.6 NE 19 26 10 14 1013.4 1013.3 2.4
13/06:02pm 14.3 13.1 12.9 91 0.8 NNE 11 17 6 9 1013.6 1013.5 1.8
13/06:00pm 14.3 13.4 12.7 90 0.9 NNE 9 15 5 8 1013.6 1013.5 1.6
13/05:30pm 14.4 13.9 12.8 90 0.9 N 7 9 4 5 1013.6 1013.5 1.2
13/05:03pm 14.4 12.8 12.8 90 0.9 N 13 20 7 11 1013.6 1013.5 1.2
13/05:00pm 14.3 12.3 12.7 90 0.9 N 15 24 8 13 1013.6 1013.5 1.2
13/04:30pm 14.8 11.8 12.7 87 1.2 NNE 20 26 11 14 1013.7 1013.6 1.0
13/04:14pm 14.9 11.0 12.2 84 1.5 NE 24 35 13 19 1013.8 1013.7 0.4
13/04:00pm 15.8 13.1 11.8 77 2.2 NNE 17 28 9 15 1013.6 1013.5 0.4
13/03:30pm 17.0 13.1 10.8 67 3.3 NNE 22 30 12 16 1013.8 1013.7 0.2
13/03:00pm 15.5 14.2 11.3 76 2.2 N 9 15 5 8 1014.2 1014.1 0.2
13/02:30pm 15.7 15.0 12.1 79 2.0 NE 7 13 4 7 1014.6 1014.5 0.2
13/02:00pm 15.4 13.6 12.2 81 1.7 ENE 13 15 7 8 1014.9 1014.8 0.2
13/01:30pm 15.6 13.0 12.0 79 2.0 ENE 17 19 9 10 1015.2 1015.1 0.2
13/01:00pm 15.4 12.9 11.2 76 2.2 ESE 15 19 8 10 1015.6 1015.5 0.2

Latest Capital City Observations: Canberra | Sydney | Melbourne | Brisbane | Adelaide | Perth | Hobart | Darwin

Other formats

Comma delimited format used in spreadsheet applications
http://www.bom.gov.au/fwo/IDN60903/IDN60903.95937.axf

JavaScript Object Notation format (JSON) in row-major order
http://www.bom.gov.au/fwo/IDN60903/IDN60903.95937.json

Data quality

Most of these data are generated automatically and are frequently updated. Quality checks on data are not normally performed. It is possible for incorrect values to appear. Refer to information at About Latest Weather Observations and please check the disclaimer before using these data.